createdAt,value
2018-09-18T00:00:27.556Z,1.30
2018-09-18T00:02:56.887Z,1.73
2018-09-18T00:05:26.011Z,1.70
2018-09-18T00:07:54.844Z,1.20
2018-09-18T00:10:23.728Z,1.50
2018-09-18T00:12:52.520Z,1.57
2018-09-18T00:15:21.793Z,1.23
2018-09-18T00:17:50.640Z,1.20
2018-09-18T00:20:19.564Z,1.67
2018-09-18T00:22:48.298Z,1.60
2018-09-18T00:25:17.343Z,1.50
2018-09-18T00:27:46.281Z,1.70
2018-09-18T00:30:15.265Z,1.27
2018-09-18T00:32:43.655Z,1.63
2018-09-18T00:35:12.837Z,1.27
2018-09-18T00:37:42.659Z,1.30
2018-09-18T00:40:10.975Z,1.50
2018-09-18T00:42:40.099Z,1.70
2018-09-18T00:45:09.275Z,1.47
2018-09-18T00:47:41.810Z,1.97
2018-09-18T00:50:10.940Z,1.80
2018-09-18T00:52:40.143Z,1.50
2018-09-18T00:55:09.387Z,1.63
2018-09-18T00:57:38.527Z,2.50
2018-09-18T01:00:07.515Z,1.50
2018-09-18T01:02:36.433Z,1.53
2018-09-18T01:05:05.596Z,1.40
2018-09-18T01:07:34.872Z,1.70
2018-09-18T01:10:03.883Z,1.50
2018-09-18T01:12:32.747Z,1.30
2018-09-18T01:15:01.468Z,1.47
2018-09-18T01:17:30.436Z,1.97
2018-09-18T01:19:59.760Z,1.80
2018-09-18T01:22:29.144Z,1.70
2018-09-18T01:24:58.601Z,1.60
2018-09-18T01:27:28.096Z,1.20
2018-09-18T01:29:58.156Z,1.67
2018-09-18T01:32:26.899Z,1.60
2018-09-18T01:34:56.328Z,1.07
2018-09-18T01:37:25.351Z,1.53
2018-09-18T01:39:54.947Z,1.10
2018-09-18T01:42:24.187Z,1.60
2018-09-18T01:44:53.147Z,1.33
2018-09-18T01:47:22.539Z,1.40
2018-09-18T01:49:51.573Z,1.77
2018-09-18T01:52:20.768Z,1.43
2018-09-18T01:54:50.672Z,1.30
2018-09-18T01:57:19.678Z,1.53
2018-09-18T01:59:48.948Z,1.50
2018-09-18T02:02:18.584Z,2.00
2018-09-18T02:04:47.683Z,1.40
2018-09-18T02:07:16.983Z,1.70
2018-09-18T02:09:46.337Z,1.60
2018-09-18T02:12:15.260Z,1.90
2018-09-18T02:14:43.820Z,1.23
2018-09-18T02:17:13.100Z,1.60
2018-09-18T02:19:42.355Z,1.57
2018-09-18T02:22:11.779Z,1.90
2018-09-18T02:24:40.805Z,1.77
2018-09-18T02:27:09.747Z,1.80
2018-09-18T02:29:38.892Z,1.50
2018-09-18T02:32:07.887Z,1.40
2018-09-18T02:34:36.980Z,1.53
2018-09-18T02:37:06.460Z,1.50
2018-09-18T02:39:35.771Z,1.70
2018-09-18T02:42:04.675Z,1.20
2018-09-18T02:44:33.839Z,1.40
2018-09-18T02:47:02.810Z,1.50
2018-09-18T02:49:31.480Z,1.20
2018-09-18T02:52:00.320Z,1.60
2018-09-18T02:54:29.676Z,1.40
2018-09-18T02:56:58.355Z,1.50
2018-09-18T02:59:27.703Z,1.30
2018-09-18T03:01:56.381Z,1.33
2018-09-18T03:04:25.627Z,1.70
2018-09-18T03:06:54.328Z,1.80
2018-09-18T03:09:24.327Z,1.47
2018-09-18T03:11:53.880Z,1.50
2018-09-18T03:14:22.608Z,1.43
2018-09-18T03:16:51.396Z,1.33
2018-09-18T03:19:20.447Z,1.70
2018-09-18T03:21:49.723Z,1.30
2018-09-18T03:24:18.431Z,1.40
2018-09-18T03:26:47.709Z,1.23
2018-09-18T03:29:17.031Z,1.70
2018-09-18T03:31:45.726Z,2.20
2018-09-18T03:34:14.789Z,1.30
2018-09-18T03:36:44.163Z,1.77
2018-09-18T03:39:13.572Z,1.40
2018-09-18T03:41:42.351Z,1.57
2018-09-18T03:44:11.073Z,1.67
2018-09-18T03:46:39.672Z,1.57
2018-09-18T03:49:08.583Z,1.20
2018-09-18T03:51:37.370Z,1.50
2018-09-18T03:54:06.142Z,1.53
2018-09-18T03:56:35.028Z,1.73
2018-09-18T03:59:04.031Z,1.70
2018-09-18T04:01:34.045Z,1.43
2018-09-18T04:04:03.381Z,1.50
2018-09-18T04:06:32.843Z,1.97
2018-09-18T04:09:02.090Z,1.80
2018-09-18T04:11:31.307Z,1.40
2018-09-18T04:14:00.388Z,1.60
2018-09-18T04:16:29.809Z,1.43
2018-09-18T04:18:58.614Z,1.50
2018-09-18T04:21:32.433Z,1.67
2018-09-18T04:24:01.996Z,1.73
2018-09-18T04:26:30.728Z,2.07
2018-09-18T04:29:00.183Z,1.80
2018-09-18T04:31:29.575Z,2.07
2018-09-18T04:33:58.664Z,1.60
2018-09-18T04:36:27.724Z,1.73
2018-09-18T04:38:57.091Z,1.53
2018-09-18T04:41:26.012Z,1.73
2018-09-18T04:43:56.011Z,2.10
2018-09-18T04:46:25.144Z,1.80
2018-09-18T04:48:53.950Z,1.70
2018-09-18T04:51:22.904Z,1.53
2018-09-18T04:53:52.122Z,1.87
2018-09-18T04:56:20.764Z,1.70
2018-09-18T04:58:49.394Z,2.10
2018-09-18T05:01:18.315Z,2.57
2018-09-18T05:03:47.473Z,1.70
2018-09-18T05:06:16.124Z,2.40
2018-09-18T05:08:45.267Z,1.77
2018-09-18T05:11:14.512Z,1.60
2018-09-18T05:13:43.995Z,2.17
2018-09-18T05:16:12.937Z,1.70
2018-09-18T05:18:43.026Z,1.77
2018-09-18T05:21:12.020Z,1.60
2018-09-18T05:23:40.731Z,1.90
2018-09-18T05:26:10.440Z,1.53
2018-09-18T05:28:39.542Z,1.70
2018-09-18T05:31:08.781Z,1.83
2018-09-18T05:33:37.995Z,1.83
2018-09-18T05:36:06.975Z,1.93
2018-09-18T05:38:35.620Z,2.33
2018-09-18T05:41:04.640Z,2.27
2018-09-18T05:43:34.159Z,1.70
2018-09-18T05:46:03.768Z,2.50
2018-09-18T05:48:34.090Z,1.97
2018-09-18T05:51:03.560Z,2.07
2018-09-18T05:53:33.092Z,1.87
2018-09-18T05:56:02.581Z,2.00
2018-09-18T05:58:31.799Z,1.83
2018-09-18T06:01:00.648Z,2.03
2018-09-18T06:03:29.743Z,1.53
2018-09-18T06:05:58.979Z,2.07
2018-09-18T06:08:34.827Z,1.90
2018-09-18T06:11:04.082Z,2.00
2018-09-18T06:13:32.972Z,1.70
2018-09-18T06:16:01.772Z,2.00
2018-09-18T06:18:31.341Z,1.80
2018-09-18T06:21:00.540Z,2.13
2018-09-18T06:23:29.721Z,1.63
2018-09-18T06:25:58.896Z,1.90
2018-09-18T06:28:27.752Z,1.63
2018-09-18T06:30:56.628Z,2.07
2018-09-18T06:33:25.508Z,2.60
2018-09-18T06:35:54.514Z,2.10
2018-09-18T06:38:23.495Z,2.07
2018-09-18T06:40:52.719Z,1.87
2018-09-18T06:43:21.916Z,2.20
2018-09-18T06:45:51.008Z,1.80
2018-09-18T06:48:20.072Z,2.40
2018-09-18T06:50:49.674Z,1.90
2018-09-18T06:53:18.804Z,2.27
2018-09-18T06:55:48.326Z,2.20
2018-09-18T06:58:17.403Z,2.00
2018-09-18T07:00:46.437Z,1.40
2018-09-18T07:03:15.836Z,1.67
2018-09-18T07:05:45.059Z,1.97
2018-09-18T07:08:14.232Z,1.70
2018-09-18T07:10:43.052Z,1.37
2018-09-18T07:13:12.246Z,1.77
2018-09-18T07:15:41.259Z,1.60
2018-09-18T07:18:11.916Z,1.70
2018-09-18T07:20:41.460Z,2.13
2018-09-18T07:23:10.590Z,1.90
2018-09-18T07:25:39.584Z,2.20
2018-09-18T07:28:08.481Z,1.70
2018-09-18T07:30:37.483Z,1.73
2018-09-18T07:33:06.578Z,2.00
2018-09-18T07:35:35.195Z,2.70
2018-09-18T07:38:04.412Z,2.20
2018-09-18T07:40:33.388Z,2.37
2018-09-18T07:43:02.675Z,2.60
2018-09-18T07:45:31.890Z,2.80
2018-09-18T07:48:01.361Z,2.60
2018-09-18T07:50:30.686Z,2.50
2018-09-18T07:52:59.766Z,2.43
2018-09-18T07:55:29.089Z,2.67
2018-09-18T07:57:58.526Z,2.17
2018-09-18T08:00:27.308Z,2.60
2018-09-18T08:02:56.576Z,2.33
2018-09-18T08:05:25.048Z,2.50
2018-09-18T08:07:53.984Z,2.53
2018-09-18T08:10:22.915Z,2.60
2018-09-18T08:12:51.948Z,2.37
2018-09-18T08:15:21.003Z,2.47
2018-09-18T08:17:49.672Z,2.53
2018-09-18T08:20:18.953Z,2.73
2018-09-18T08:22:47.888Z,2.60
2018-09-18T08:25:17.389Z,2.77
2018-09-18T08:27:46.548Z,2.57
2018-09-18T08:30:15.476Z,2.40
2018-09-18T08:32:44.681Z,2.80
2018-09-18T08:35:13.829Z,2.93
2018-09-18T08:37:42.781Z,2.73
2018-09-18T08:40:11.679Z,3.07
2018-09-18T08:42:41.384Z,2.23
2018-09-18T08:45:10.319Z,2.27
2018-09-18T08:47:39.296Z,2.63
2018-09-18T08:50:07.988Z,2.20
2018-09-18T08:52:37.001Z,2.30
2018-09-18T08:55:06.120Z,2.83
2018-09-18T08:57:36.036Z,2.67
2018-09-18T09:00:05.352Z,2.70
2018-09-18T09:02:34.156Z,2.43
2018-09-18T09:05:03.281Z,2.50
2018-09-18T09:07:32.543Z,2.60
2018-09-18T09:10:01.457Z,2.50
2018-09-18T09:12:30.727Z,2.33
2018-09-18T09:14:59.841Z,2.80
2018-09-18T09:17:28.769Z,2.80
2018-09-18T09:19:58.069Z,2.50
2018-09-18T09:22:27.310Z,2.57
2018-09-18T09:24:56.044Z,2.40
2018-09-18T09:27:25.255Z,2.47
2018-09-18T09:29:54.418Z,2.70
2018-09-18T09:32:23.038Z,2.23
2018-09-18T09:34:52.393Z,2.37
2018-09-18T09:37:21.099Z,2.40
2018-09-18T09:39:49.993Z,2.63
2018-09-18T09:42:19.556Z,1.93
2018-09-18T09:44:48.784Z,2.27
2018-09-18T09:47:17.841Z,2.27
2018-09-18T09:49:47.185Z,2.47
2018-09-18T09:52:15.721Z,2.30
2018-09-18T09:54:44.860Z,2.30
2018-09-18T09:57:13.961Z,2.40
2018-09-18T09:59:43.624Z,2.40
2018-09-18T10:02:19.724Z,2.33
2018-09-18T10:04:49.438Z,2.17
2018-09-18T10:07:17.936Z,2.40
2018-09-18T10:09:46.992Z,2.90
2018-09-18T10:12:16.311Z,2.40
2018-09-18T10:14:45.345Z,2.60
2018-09-18T10:17:14.581Z,2.17
2018-09-18T10:19:43.830Z,2.40
2018-09-18T10:22:13.042Z,2.17
2018-09-18T10:24:42.123Z,2.33
2018-09-18T10:27:11.041Z,2.37
2018-09-18T10:29:40.020Z,2.33
2018-09-18T10:32:08.792Z,2.67
2018-09-18T10:34:38.023Z,2.30
2018-09-18T10:37:07.254Z,2.30
2018-09-18T10:39:36.204Z,2.50
2018-09-18T10:42:06.826Z,2.83
2018-09-18T10:44:36.369Z,2.87
2018-09-18T10:47:05.291Z,3.10
2018-09-18T10:49:34.223Z,2.33
2018-09-18T10:52:03.093Z,2.50
2018-09-18T10:54:32.009Z,2.50
2018-09-18T10:57:00.632Z,2.37
2018-09-18T10:59:29.418Z,2.40
2018-09-18T11:01:58.785Z,2.80
2018-09-18T11:04:27.766Z,2.20
2018-09-18T11:06:56.131Z,2.50
2018-09-18T11:09:24.477Z,2.27
2018-09-18T11:11:53.384Z,2.47
2018-09-18T11:14:22.440Z,2.47
2018-09-18T11:16:51.288Z,2.70
2018-09-18T11:19:20.855Z,2.52
2018-09-18T11:21:49.644Z,2.60
2018-09-18T11:24:18.471Z,2.40
2018-09-18T11:26:47.202Z,2.50
2018-09-18T11:29:16.537Z,2.60
2018-09-18T11:31:45.969Z,2.00
2018-09-18T11:34:14.906Z,2.60
2018-09-18T11:36:43.858Z,2.40
2018-09-18T11:39:13.035Z,2.60
2018-09-18T11:41:41.904Z,2.83
2018-09-18T11:44:11.250Z,2.10
2018-09-18T11:46:40.080Z,2.65
2018-09-18T11:49:09.013Z,2.52
2018-09-18T11:51:38.059Z,2.30
2018-09-18T11:54:07.476Z,2.77
2018-09-18T11:56:36.470Z,2.87
2018-09-18T11:59:05.880Z,2.15
2018-09-18T12:01:35.140Z,2.50
2018-09-18T12:04:03.965Z,2.12
2018-09-18T12:06:33.183Z,2.80
2018-09-18T12:09:02.028Z,2.75
2018-09-18T12:11:30.589Z,2.45
2018-09-18T12:13:59.829Z,2.47
2018-09-18T12:16:28.825Z,2.22
2018-09-18T12:18:58.421Z,2.40
2018-09-18T12:21:27.308Z,2.45
2018-09-18T12:23:56.577Z,2.80
2018-09-18T12:26:25.641Z,2.47
2018-09-18T12:28:54.896Z,2.60
2018-09-18T12:31:23.889Z,2.60
2018-09-18T12:33:53.002Z,2.62
2018-09-18T12:36:21.881Z,2.33
2018-09-18T12:38:51.077Z,2.20
2018-09-18T12:41:19.654Z,2.47
2018-09-18T12:43:49.371Z,2.35
2018-09-18T12:46:18.981Z,2.72
2018-09-18T12:48:48.283Z,2.55
2018-09-18T12:51:17.069Z,2.62
2018-09-18T12:53:45.973Z,2.30
2018-09-18T12:56:14.713Z,2.60
2018-09-18T12:58:43.845Z,2.52
2018-09-18T13:01:13.179Z,2.30
2018-09-18T13:03:42.458Z,2.60
2018-09-18T13:06:11.468Z,2.30
2018-09-18T13:08:39.909Z,2.72
2018-09-18T13:11:08.652Z,2.52
2018-09-18T13:13:38.238Z,2.33
2018-09-18T13:16:07.651Z,2.80
2018-09-18T13:18:36.025Z,2.77
2018-09-18T13:21:05.240Z,2.65
2018-09-18T13:23:34.132Z,2.58
2018-09-18T13:26:03.225Z,2.60
2018-09-18T13:28:32.128Z,2.72
2018-09-18T13:31:00.940Z,2.62
2018-09-18T13:33:29.634Z,2.67
2018-09-18T13:35:58.520Z,2.50
2018-09-18T13:38:27.721Z,2.60
2018-09-18T13:40:57.069Z,2.60
2018-09-18T13:43:26.230Z,2.75
2018-09-18T13:45:55.431Z,2.65
2018-09-18T13:48:24.506Z,2.45
2018-09-18T13:50:54.345Z,2.70
2018-09-18T13:53:23.577Z,2.60
2018-09-18T13:55:52.569Z,2.60
2018-09-18T13:58:21.607Z,2.90
2018-09-18T14:00:50.951Z,2.95
2018-09-18T14:03:20.056Z,2.42
2018-09-18T14:05:49.709Z,2.52
2018-09-18T14:08:18.634Z,2.52
2018-09-18T14:10:47.573Z,2.70
2018-09-18T14:13:16.481Z,2.90
2018-09-18T14:15:45.521Z,2.67
2018-09-18T14:18:14.773Z,2.90
2018-09-18T14:20:44.019Z,2.65
2018-09-18T14:23:13.793Z,2.47
2018-09-18T14:25:42.531Z,2.83
2018-09-18T14:28:11.733Z,2.72
2018-09-18T14:30:41.145Z,2.45
2018-09-18T14:33:09.868Z,2.62
2018-09-18T14:35:38.929Z,2.47
2018-09-18T14:38:08.258Z,2.70
2018-09-18T14:40:37.420Z,2.50
2018-09-18T14:43:06.251Z,2.42
2018-09-18T14:45:36.353Z,2.50
2018-09-18T14:48:05.497Z,2.80
2018-09-18T14:50:34.380Z,2.50
2018-09-18T14:53:03.376Z,2.98
2018-09-18T14:55:32.449Z,2.70
2018-09-18T14:58:01.299Z,2.60
2018-09-18T15:00:30.267Z,2.67
2018-09-18T15:02:59.370Z,2.67
2018-09-18T15:05:28.672Z,2.80
2018-09-18T15:07:57.353Z,2.55
2018-09-18T15:10:26.662Z,2.70
2018-09-18T15:12:55.540Z,2.25
2018-09-18T15:15:24.455Z,2.85
2018-09-18T15:17:53.684Z,2.62
2018-09-18T15:20:23.721Z,2.90
2018-09-18T15:22:52.941Z,2.58
2018-09-18T15:25:21.844Z,2.60
2018-09-18T15:27:51.262Z,2.65
2018-09-18T15:30:20.884Z,2.75
2018-09-18T15:32:49.900Z,2.33
2018-09-18T15:35:18.977Z,2.75
2018-09-18T15:37:48.660Z,2.75
2018-09-18T15:40:18.185Z,2.27
2018-09-18T15:42:47.446Z,2.35
2018-09-18T15:45:16.542Z,2.40
2018-09-18T15:47:45.724Z,2.33
2018-09-18T15:50:14.692Z,2.30
2018-09-18T15:52:43.682Z,2.02
2018-09-18T15:55:12.458Z,2.22
2018-09-18T15:57:41.523Z,2.30
2018-09-18T16:00:10.475Z,2.30
2018-09-18T16:02:39.501Z,2.50
2018-09-18T16:05:08.483Z,2.25
2018-09-18T16:07:37.595Z,2.00
2018-09-18T16:10:07.143Z,2.20
2018-09-18T16:12:35.985Z,2.20
2018-09-18T16:15:04.899Z,2.27
2018-09-18T16:17:34.041Z,2.25
2018-09-18T16:20:02.999Z,2.15
2018-09-18T16:22:31.653Z,2.40
2018-09-18T16:25:00.882Z,2.20
2018-09-18T16:27:29.890Z,2.20
2018-09-18T16:29:59.017Z,2.42
2018-09-18T16:32:28.205Z,2.35
2018-09-18T16:34:57.135Z,2.62
2018-09-18T16:37:25.904Z,2.08
2018-09-18T16:39:54.695Z,2.40
2018-09-18T16:42:23.446Z,2.27
2018-09-18T16:44:52.574Z,2.83
2018-09-18T16:47:21.666Z,2.40
2018-09-18T16:49:50.866Z,2.08
2018-09-18T16:52:19.714Z,2.60
2018-09-18T16:54:51.505Z,2.50
2018-09-18T16:57:20.685Z,2.42
2018-09-18T16:59:49.227Z,2.30
2018-09-18T17:02:17.897Z,2.15
2018-09-18T17:04:47.114Z,2.05
2018-09-18T17:07:16.415Z,2.27
2018-09-18T17:09:46.396Z,2.22
2018-09-18T17:12:15.733Z,2.70
2018-09-18T17:14:45.058Z,2.47
2018-09-18T17:17:13.612Z,2.62
2018-09-18T17:19:42.585Z,2.05
2018-09-18T17:22:11.395Z,2.30
2018-09-18T17:24:40.590Z,2.00
2018-09-18T17:27:09.647Z,2.37
2018-09-18T17:29:39.210Z,2.35
2018-09-18T17:32:08.513Z,2.70
2018-09-18T17:34:38.239Z,2.22
2018-09-18T17:37:07.847Z,2.55
2018-09-18T17:39:38.041Z,2.12
2018-09-18T17:42:07.226Z,2.33
2018-09-18T17:44:36.298Z,2.70
2018-09-18T17:47:06.233Z,2.52
2018-09-18T17:49:35.946Z,3.45
2018-09-18T17:52:05.595Z,3.90
2018-09-18T17:54:39.419Z,4.37
2018-09-18T17:57:15.457Z,3.70
2018-09-18T17:59:45.155Z,4.40
2018-09-18T18:02:14.344Z,3.20
2018-09-18T18:04:43.251Z,3.60
2018-09-18T18:07:12.628Z,2.70
2018-09-18T18:09:42.325Z,3.23
2018-09-18T18:12:12.046Z,3.22
2018-09-18T18:14:41.419Z,3.10
2018-09-18T18:17:10.348Z,3.13
2018-09-18T18:19:39.379Z,2.80
2018-09-18T18:22:09.746Z,3.00
2018-09-18T18:24:39.151Z,3.00
2018-09-18T18:27:08.554Z,2.83
2018-09-18T18:29:37.511Z,3.00
2018-09-18T18:32:07.045Z,2.80
2018-09-18T18:34:36.299Z,3.20
2018-09-18T18:37:06.002Z,2.67
2018-09-18T18:39:35.210Z,2.67
2018-09-18T18:42:04.356Z,2.90
2018-09-18T18:44:33.930Z,3.20
2018-09-18T18:47:03.832Z,3.57
2018-09-18T18:49:34.806Z,2.47
2018-09-18T18:52:05.405Z,2.57
2018-09-18T18:54:34.895Z,2.83
2018-09-18T18:57:04.360Z,3.47
2018-09-18T18:59:34.157Z,3.03
2018-09-18T19:02:03.554Z,3.57
2018-09-18T19:04:33.101Z,2.80
2018-09-18T19:07:03.063Z,2.30
2018-09-18T19:09:32.834Z,3.17
2018-09-18T19:12:02.453Z,2.90
2018-09-18T19:14:32.341Z,2.63
2018-09-18T19:17:01.448Z,2.77
2018-09-18T19:19:30.774Z,2.47
2018-09-18T19:22:00.214Z,2.97
2018-09-18T19:24:33.711Z,2.93
2018-09-18T19:27:03.235Z,3.20
2018-09-18T19:29:32.195Z,2.60
2018-09-18T19:32:02.058Z,2.80
2018-09-18T19:34:31.421Z,3.03
2018-09-18T19:37:00.269Z,3.23
2018-09-18T19:39:29.919Z,2.83
2018-09-18T19:41:59.799Z,2.60
2018-09-18T19:44:29.688Z,3.33
2018-09-18T19:46:59.462Z,2.73
2018-09-18T19:49:28.962Z,3.13
2018-09-18T19:51:59.024Z,3.23
2018-09-18T19:54:27.820Z,3.30
2018-09-18T19:56:57.809Z,3.13
2018-09-18T19:59:27.661Z,3.00
2018-09-18T20:01:57.042Z,2.90
2018-09-18T20:04:26.461Z,3.07
2018-09-18T20:06:56.985Z,2.90
2018-09-18T20:09:26.678Z,3.40
2018-09-18T20:11:55.901Z,3.50
2018-09-18T20:14:25.731Z,3.30
2018-09-18T20:16:54.922Z,3.20
2018-09-18T20:19:24.243Z,3.20
2018-09-18T20:21:53.463Z,3.03
2018-09-18T20:24:22.889Z,3.10
2018-09-18T20:26:52.169Z,2.93
2018-09-18T20:29:21.141Z,3.13
2018-09-18T20:31:50.559Z,3.00
2018-09-18T20:34:19.801Z,3.23
2018-09-18T20:36:48.993Z,3.10
2018-09-18T20:39:18.096Z,3.20
2018-09-18T20:41:47.521Z,3.20
2018-09-18T20:44:16.896Z,3.30
2018-09-18T20:46:45.868Z,3.20
2018-09-18T20:49:14.552Z,3.10
2018-09-18T20:51:43.920Z,3.03
2018-09-18T20:54:13.140Z,3.20
2018-09-18T20:56:42.212Z,3.10
2018-09-18T20:59:11.592Z,3.23
2018-09-18T21:01:40.997Z,3.80
2018-09-18T21:04:10.409Z,3.33
2018-09-18T21:06:39.800Z,3.20
2018-09-18T21:09:10.028Z,3.07
2018-09-18T21:11:39.207Z,3.50
2018-09-18T21:14:08.341Z,3.13
2018-09-18T21:16:37.504Z,3.50
2018-09-18T21:19:06.884Z,3.03
2018-09-18T21:21:36.556Z,3.57
2018-09-18T21:24:06.458Z,2.90
2018-09-18T21:26:35.585Z,3.00
2018-09-18T21:29:04.686Z,3.20
2018-09-18T21:31:33.979Z,2.90
2018-09-18T21:34:03.080Z,3.30
2018-09-18T21:36:32.035Z,3.20
2018-09-18T21:39:00.996Z,3.20
2018-09-18T21:41:29.713Z,3.50
2018-09-18T21:43:59.395Z,2.90
2018-09-18T21:46:28.348Z,3.30
2018-09-18T21:48:57.172Z,2.97
2018-09-18T21:51:26.452Z,3.40
2018-09-18T21:53:56.215Z,3.10
2018-09-18T21:56:24.937Z,3.40
2018-09-18T21:58:53.592Z,3.10
2018-09-18T22:01:22.731Z,3.03
2018-09-18T22:03:55.867Z,3.20
2018-09-18T22:06:24.968Z,2.80
2018-09-18T22:08:54.182Z,2.90
2018-09-18T22:11:23.203Z,3.10
2018-09-18T22:13:52.401Z,3.20
2018-09-18T22:16:21.479Z,3.10
2018-09-18T22:18:50.895Z,3.00
2018-09-18T22:21:19.859Z,3.77
2018-09-18T22:23:48.733Z,3.33
2018-09-18T22:26:17.576Z,3.10
2018-09-18T22:28:46.571Z,3.67
2018-09-18T22:31:16.257Z,3.03
2018-09-18T22:33:45.051Z,3.00
2018-09-18T22:36:13.851Z,3.13
2018-09-18T22:38:42.425Z,3.33
2018-09-18T22:41:11.250Z,3.40
2018-09-18T22:43:40.145Z,3.10
2018-09-18T22:46:09.533Z,3.10
2018-09-18T22:48:38.181Z,3.07
2018-09-18T22:51:07.355Z,3.27
2018-09-18T22:53:37.344Z,3.43
2018-09-18T22:56:06.287Z,2.87
2018-09-18T22:58:35.542Z,3.13
2018-09-18T23:01:04.447Z,3.50
2018-09-18T23:03:33.612Z,3.60
2018-09-18T23:06:02.600Z,3.60
2018-09-18T23:08:31.544Z,3.67
2018-09-18T23:11:00.484Z,3.37
2018-09-18T23:13:29.456Z,3.40
2018-09-18T23:15:58.112Z,3.60
2018-09-18T23:18:27.597Z,3.60
2018-09-18T23:20:56.495Z,4.00
2018-09-18T23:23:25.663Z,3.60
2018-09-18T23:25:54.932Z,3.23
2018-09-18T23:28:24.246Z,3.70
2018-09-18T23:30:53.552Z,3.30
2018-09-18T23:33:22.734Z,3.50
2018-09-18T23:35:52.780Z,3.40
2018-09-18T23:38:21.985Z,4.17
2018-09-18T23:40:50.959Z,3.70
2018-09-18T23:43:19.856Z,3.90
2018-09-18T23:45:49.280Z,3.37
2018-09-18T23:48:18.484Z,3.80
2018-09-18T23:50:47.678Z,3.60
2018-09-18T23:53:17.359Z,3.90
2018-09-18T23:55:46.187Z,4.30
2018-09-18T23:58:15.112Z,3.80
